PRXXI SBGR-SNGN
Flight info
| Callsign | PRXXI |
|---|---|
| Flight time | 2h 36m |
| Altitude | 45000 |
| Route | NUXEL UZ23 TEMEV UZ73 OPMUD DCT 5004S62817W/N0200A055 VFR DCT |
| Aircraft | C750/M-SBDE3FGHRWXY/S |
Departure
| Time | 2026-04-21 03:20 |
|---|---|
| Airport | São Paulo/Guarulhos–Governor André Franco Montoro International Airport (SBGR) |
Arrival
| Time | 2026-04-21 05:56 |
|---|---|
| Airport | Garanhuns Airport (SNGN) |
| Time | Latitude | Longitude | Altitude | Speed | Heading |
|---|---|---|---|---|---|
| 2026-04-21 03:20 | -23.40985 | -46.39804 | 5438 ft | 198 kts | 75° |
| 2026-04-21 03:20 | -23.40457 | -46.38305 | 5676 ft | 228 kts | 65° |
| 2026-04-21 03:20 | -23.39513 | -46.36837 | 6200 ft | 244 kts | 47° |
| 2026-04-21 03:21 | -23.38031 | -46.35893 | 6932 ft | 250 kts | 27° |
| 2026-04-21 03:21 | -23.36427 | -46.35123 | 7679 ft | 254 kts | 27° |
| 2026-04-21 03:21 | -23.34803 | -46.34324 | 8497 ft | 258 kts | 27° |
| 2026-04-21 03:21 | -23.33157 | -46.33505 | 9286 ft | 263 kts | 27° |
| 2026-04-21 03:22 | -23.31475 | -46.32674 | 10028 ft | 268 kts | 27° |
| 2026-04-21 03:22 | -23.29762 | -46.31830 | 10712 ft | 272 kts | 26° |
| 2026-04-21 03:22 | -23.28036 | -46.30980 | 11421 ft | 273 kts | 26° |
| 2026-04-21 03:22 | -23.26322 | -46.30133 | 12084 ft | 277 kts | 26° |
| 2026-04-21 03:23 | -23.24559 | -46.29265 | 12799 ft | 279 kts | 26° |
| 2026-04-21 03:23 | -23.22778 | -46.28387 | 13486 ft | 283 kts | 26° |
| 2026-04-21 03:23 | -23.20973 | -46.27498 | 14159 ft | 286 kts | 26° |
| 2026-04-21 03:23 | -23.19181 | -46.26615 | 14780 ft | 288 kts | 26° |
| 2026-04-21 03:24 | -23.17346 | -46.25712 | 15426 ft | 290 kts | 26° |
| 2026-04-21 03:24 | -23.15498 | -46.24802 | 16061 ft | 293 kts | 26° |
| 2026-04-21 03:24 | -23.13634 | -46.23885 | 16730 ft | 295 kts | 25° |
| 2026-04-21 03:24 | -23.11757 | -46.22962 | 17405 ft | 298 kts | 25° |
| 2026-04-21 03:25 | -23.09861 | -46.22029 | 18100 ft | 300 kts | 25° |
| 2026-04-21 03:25 | -23.07948 | -46.21089 | 18749 ft | 303 kts | 25° |
| 2026-04-21 03:25 | -23.06018 | -46.20140 | 19353 ft | 306 kts | 24° |
| 2026-04-21 03:25 | -23.04071 | -46.19184 | 19979 ft | 309 kts | 24° |
| 2026-04-21 03:26 | -23.02105 | -46.18218 | 20615 ft | 311 kts | 24° |
| 2026-04-21 03:26 | -23.00125 | -46.17246 | 21263 ft | 314 kts | 24° |
| 2026-04-21 03:26 | -22.98128 | -46.16265 | 21903 ft | 317 kts | 23° |
| 2026-04-21 03:26 | -22.96108 | -46.15274 | 22554 ft | 320 kts | 23° |
| 2026-04-21 03:27 | -22.94071 | -46.14275 | 23220 ft | 323 kts | 23° |
| 2026-04-21 03:27 | -22.92016 | -46.13267 | 23835 ft | 326 kts | 23° |
| 2026-04-21 03:27 | -22.89942 | -46.12251 | 24377 ft | 329 kts | 23° |
| 2026-04-21 03:27 | -22.87846 | -46.11223 | 24905 ft | 332 kts | 23° |
| 2026-04-21 03:28 | -22.85727 | -46.10186 | 25443 ft | 336 kts | 23° |
| 2026-04-21 03:28 | -22.83588 | -46.09138 | 26002 ft | 339 kts | 23° |
| 2026-04-21 03:28 | -22.81431 | -46.08082 | 26551 ft | 342 kts | 23° |
| 2026-04-21 03:28 | -22.79255 | -46.07017 | 27093 ft | 345 kts | 23° |
| 2026-04-21 03:29 | -22.77060 | -46.05944 | 27657 ft | 348 kts | 23° |
| 2026-04-21 03:29 | -22.74842 | -46.04859 | 28209 ft | 351 kts | 23° |
| 2026-04-21 03:29 | -22.72605 | -46.03765 | 28753 ft | 354 kts | 23° |
| 2026-04-21 03:29 | -22.70348 | -46.02662 | 29313 ft | 357 kts | 23° |
| 2026-04-21 03:30 | -22.68097 | -46.01562 | 29961 ft | 358 kts | 23° |
| 2026-04-21 03:30 | -22.65766 | -46.00425 | 29948 ft | 377 kts | 23° |
| 2026-04-21 03:30 | -22.63321 | -45.99233 | 29971 ft | 394 kts | 23° |
| 2026-04-21 03:30 | -22.60769 | -45.97986 | 30006 ft | 411 kts | 23° |
| 2026-04-21 03:31 | -22.58115 | -45.96692 | 30043 ft | 426 kts | 23° |
| 2026-04-21 03:31 | -22.55368 | -45.95353 | 30102 ft | 440 kts | 23° |
| 2026-04-21 03:31 | -22.52530 | -45.93970 | 30152 ft | 454 kts | 23° |
| 2026-04-21 03:31 | -22.49609 | -45.92547 | 30196 ft | 467 kts | 23° |
| 2026-04-21 03:32 | -22.46608 | -45.91085 | 30235 ft | 479 kts | 23° |
| 2026-04-21 03:32 | -22.43550 | -45.89597 | 30624 ft | 478 kts | 23° |
| 2026-04-21 03:32 | -22.40622 | -45.88171 | 31546 ft | 464 kts | 24° |
| 2026-04-21 03:32 | -22.37642 | -45.86723 | 31664 ft | 474 kts | 24° |
| 2026-04-21 03:33 | -22.34626 | -45.85260 | 32048 ft | 477 kts | 24° |
| 2026-04-21 03:33 | -22.31589 | -45.83784 | 32378 ft | 481 kts | 24° |
| 2026-04-21 03:33 | -22.28585 | -45.82174 | 32652 ft | 485 kts | 30° |
| 2026-04-21 03:33 | -22.25826 | -45.80054 | 33005 ft | 488 kts | 39° |
| 2026-04-21 03:34 | -22.23173 | -45.77745 | 33333 ft | 492 kts | 39° |
| 2026-04-21 03:34 | -22.20498 | -45.75426 | 33657 ft | 495 kts | 39° |
| 2026-04-21 03:34 | -22.17795 | -45.73102 | 33978 ft | 499 kts | 39° |
| 2026-04-21 03:34 | -22.15071 | -45.70754 | 34274 ft | 503 kts | 39° |
| 2026-04-21 03:35 | -22.12339 | -45.68390 | 34578 ft | 505 kts | 39° |
| 2026-04-21 03:35 | -22.09590 | -45.66014 | 34891 ft | 508 kts | 39° |
| 2026-04-21 03:35 | -22.06821 | -45.63630 | 35177 ft | 511 kts | 39° |
| 2026-04-21 03:35 | -22.04037 | -45.61234 | 35489 ft | 513 kts | 39° |
| 2026-04-21 03:36 | -22.01241 | -45.58824 | 35787 ft | 516 kts | 39° |
| 2026-04-21 03:36 | -21.98433 | -45.56404 | 36086 ft | 519 kts | 39° |
| 2026-04-21 03:36 | -21.95607 | -45.53973 | 36380 ft | 522 kts | 39° |
| 2026-04-21 03:36 | -21.92759 | -45.51525 | 36675 ft | 524 kts | 39° |
| 2026-04-21 03:37 | -21.89903 | -45.49070 | 36977 ft | 527 kts | 39° |
| 2026-04-21 03:37 | -21.87034 | -45.46604 | 37254 ft | 529 kts | 39° |
| 2026-04-21 03:37 | -21.84144 | -45.44123 | 37520 ft | 532 kts | 39° |
| 2026-04-21 03:37 | -21.81247 | -45.41637 | 37784 ft | 535 kts | 39° |
| 2026-04-21 03:38 | -21.78369 | -45.39169 | 38034 ft | 537 kts | 39° |
| 2026-04-21 03:38 | -21.75444 | -45.36661 | 38263 ft | 539 kts | 39° |
| 2026-04-21 03:38 | -21.72506 | -45.34144 | 38495 ft | 541 kts | 39° |
| 2026-04-21 03:38 | -21.69556 | -45.31618 | 38706 ft | 543 kts | 39° |
| 2026-04-21 03:39 | -21.66598 | -45.29086 | 38884 ft | 545 kts | 39° |
| 2026-04-21 03:39 | -21.63652 | -45.26566 | 39545 ft | 530 kts | 39° |
| 2026-04-21 03:39 | -21.60844 | -45.24167 | 40826 ft | 504 kts | 39° |
| 2026-04-21 03:39 | -21.58110 | -45.21831 | 41157 ft | 505 kts | 39° |
| 2026-04-21 03:40 | -21.55347 | -45.19468 | 41294 ft | 509 kts | 39° |
| 2026-04-21 03:40 | -21.52582 | -45.17107 | 41618 ft | 508 kts | 39° |
| 2026-04-21 03:40 | -21.49806 | -45.14741 | 41863 ft | 510 kts | 39° |
| 2026-04-21 03:40 | -21.47030 | -45.12373 | 42093 ft | 511 kts | 39° |
| 2026-04-21 03:41 | -21.44242 | -45.09996 | 42318 ft | 512 kts | 39° |
| 2026-04-21 03:41 | -21.41500 | -45.07660 | 43304 ft | 490 kts | 39° |
| 2026-04-21 03:41 | -21.38900 | -45.05448 | 44567 ft | 465 kts | 39° |
| 2026-04-21 03:41 | -21.36417 | -45.03334 | 45088 ft | 448 kts | 39° |
| 2026-04-21 03:42 | -21.31490 | -44.99140 | 45095 ft | 456 kts | 39° |
| 2026-04-21 03:42 | -21.26464 | -44.94871 | 45111 ft | 465 kts | 39° |
| 2026-04-21 03:43 | -21.21366 | -44.90541 | 45125 ft | 469 kts | 39° |
| 2026-04-21 03:43 | -21.16247 | -44.86199 | 45111 ft | 469 kts | 39° |
| 2026-04-21 03:44 | -21.11860 | -44.82479 | 45110 ft | 466 kts | 39° |
| 2026-04-21 03:44 | -21.06876 | -44.78259 | 45103 ft | 449 kts | 39° |
| 2026-04-21 03:45 | -21.01820 | -44.74246 | 45108 ft | 456 kts | 36° |
| 2026-04-21 03:45 | -20.96645 | -44.70302 | 45113 ft | 457 kts | 36° |
| 2026-04-21 03:46 | -20.91477 | -44.66346 | 45112 ft | 457 kts | 36° |
| 2026-04-21 03:46 | -20.86300 | -44.62402 | 45113 ft | 457 kts | 36° |
| 2026-04-21 03:47 | -20.81157 | -44.58477 | 45108 ft | 457 kts | 36° |
| 2026-04-21 03:47 | -20.75974 | -44.54530 | 45105 ft | 457 kts | 36° |
| 2026-04-21 03:48 | -20.70800 | -44.50585 | 45102 ft | 457 kts | 36° |
| 2026-04-21 03:48 | -20.65622 | -44.46646 | 45097 ft | 457 kts | 36° |
| 2026-04-21 03:49 | -20.60450 | -44.42711 | 45094 ft | 456 kts | 36° |
| 2026-04-21 03:49 | -20.55274 | -44.38779 | 45097 ft | 457 kts | 36° |
| 2026-04-21 03:50 | -20.50095 | -44.34847 | 45092 ft | 457 kts | 36° |
| 2026-04-21 03:50 | -20.44918 | -44.30920 | 45093 ft | 457 kts | 36° |
| 2026-04-21 03:51 | -20.39818 | -44.26881 | 45089 ft | 457 kts | 37° |
| 2026-04-21 03:51 | -20.34726 | -44.22883 | 45091 ft | 457 kts | 37° |
| 2026-04-21 03:52 | -20.29640 | -44.18826 | 45093 ft | 457 kts | 37° |
| 2026-04-21 03:52 | -20.24529 | -44.14793 | 45090 ft | 457 kts | 37° |
| 2026-04-21 03:53 | -20.19424 | -44.10744 | 45088 ft | 457 kts | 37° |
| 2026-04-21 03:53 | -20.14317 | -44.06710 | 45089 ft | 457 kts | 37° |
| 2026-04-21 03:54 | -20.09206 | -44.02670 | 45084 ft | 458 kts | 37° |
| 2026-04-21 03:54 | -20.04089 | -43.98640 | 45078 ft | 458 kts | 37° |
| 2026-04-21 03:55 | -19.99837 | -43.95294 | 45076 ft | 458 kts | 37° |
| 2026-04-21 03:55 | -19.93855 | -43.90588 | 45076 ft | 459 kts | 37° |
| 2026-04-21 03:56 | -19.89593 | -43.87240 | 45070 ft | 457 kts | 37° |
| 2026-04-21 03:56 | -19.84452 | -43.83264 | 45066 ft | 458 kts | 35° |
| 2026-04-21 03:57 | -19.79187 | -43.79461 | 45086 ft | 458 kts | 35° |
| 2026-04-21 03:57 | -19.73929 | -43.75641 | 45084 ft | 458 kts | 35° |
| 2026-04-21 03:58 | -19.68665 | -43.71838 | 45079 ft | 457 kts | 35° |
| 2026-04-21 03:58 | -19.63412 | -43.68034 | 45078 ft | 457 kts | 35° |
| 2026-04-21 03:59 | -19.58153 | -43.64236 | 45084 ft | 457 kts | 35° |
| 2026-04-21 04:00 | -19.50270 | -43.58545 | 45084 ft | 457 kts | 35° |
| 2026-04-21 04:00 | -19.45019 | -43.54758 | 45087 ft | 456 kts | 35° |
| 2026-04-21 04:01 | -19.39768 | -43.50973 | 45090 ft | 456 kts | 35° |
| 2026-04-21 04:01 | -19.34523 | -43.47198 | 45094 ft | 456 kts | 35° |
| 2026-04-21 04:02 | -19.29338 | -43.43348 | 45088 ft | 454 kts | 38° |
| 2026-04-21 04:02 | -19.24332 | -43.39347 | 45080 ft | 451 kts | 38° |
| 2026-04-21 04:03 | -19.19303 | -43.35366 | 45082 ft | 454 kts | 38° |
| 2026-04-21 04:03 | -19.14253 | -43.31351 | 45092 ft | 454 kts | 38° |
| 2026-04-21 04:04 | -19.09199 | -43.27346 | 45085 ft | 454 kts | 38° |
| 2026-04-21 04:04 | -19.04143 | -43.23338 | 45086 ft | 455 kts | 38° |
| 2026-04-21 04:05 | -18.99090 | -43.19338 | 45089 ft | 453 kts | 37° |
| 2026-04-21 04:05 | -18.94049 | -43.15349 | 45094 ft | 453 kts | 37° |
| 2026-04-21 04:06 | -18.89004 | -43.11360 | 45083 ft | 452 kts | 37° |
| 2026-04-21 04:06 | -18.83970 | -43.07383 | 45085 ft | 452 kts | 37° |
| 2026-04-21 04:07 | -18.78932 | -43.03406 | 45088 ft | 451 kts | 37° |
| 2026-04-21 04:07 | -18.73900 | -42.99430 | 45086 ft | 452 kts | 37° |
| 2026-04-21 04:08 | -18.68867 | -42.95455 | 45084 ft | 452 kts | 37° |
| 2026-04-21 04:08 | -18.63832 | -42.91483 | 45091 ft | 452 kts | 37° |
| 2026-04-21 04:09 | -18.58827 | -42.87537 | 45085 ft | 452 kts | 37° |
| 2026-04-21 04:09 | -18.53757 | -42.83542 | 45086 ft | 453 kts | 37° |
| 2026-04-21 04:10 | -18.48746 | -42.79604 | 45080 ft | 452 kts | 37° |
| 2026-04-21 04:10 | -18.43697 | -42.75638 | 45082 ft | 453 kts | 37° |
| 2026-04-21 04:11 | -18.38649 | -42.71675 | 45082 ft | 453 kts | 36° |
| 2026-04-21 04:11 | -18.33596 | -42.67711 | 45082 ft | 453 kts | 36° |
| 2026-04-21 04:12 | -18.28539 | -42.63748 | 45079 ft | 453 kts | 36° |
| 2026-04-21 04:12 | -18.23483 | -42.59788 | 45081 ft | 454 kts | 36° |
| 2026-04-21 04:13 | -18.18424 | -42.55828 | 45081 ft | 453 kts | 36° |
| 2026-04-21 04:13 | -18.13361 | -42.51868 | 45077 ft | 454 kts | 36° |
| 2026-04-21 04:14 | -18.08296 | -42.47910 | 45081 ft | 453 kts | 36° |
| 2026-04-21 04:14 | -18.03234 | -42.43958 | 45084 ft | 454 kts | 36° |
| 2026-04-21 04:15 | -17.98170 | -42.40005 | 45083 ft | 453 kts | 36° |
| 2026-04-21 04:15 | -17.93110 | -42.36060 | 45087 ft | 453 kts | 35° |
| 2026-04-21 04:16 | -17.88043 | -42.32112 | 45087 ft | 453 kts | 35° |
| 2026-04-21 04:16 | -17.82983 | -42.28172 | 45089 ft | 453 kts | 35° |
| 2026-04-21 04:17 | -17.77922 | -42.24234 | 45093 ft | 453 kts | 35° |
| 2026-04-21 04:17 | -17.72856 | -42.20295 | 45092 ft | 453 kts | 35° |
| 2026-04-21 04:18 | -17.67795 | -42.16364 | 45092 ft | 453 kts | 35° |
| 2026-04-21 04:18 | -17.62727 | -42.12429 | 45083 ft | 453 kts | 35° |
| 2026-04-21 04:19 | -17.57660 | -42.08497 | 45083 ft | 453 kts | 35° |
| 2026-04-21 04:19 | -17.52591 | -42.04567 | 45078 ft | 454 kts | 35° |
| 2026-04-21 04:20 | -17.47514 | -42.00634 | 45081 ft | 454 kts | 35° |
| 2026-04-21 04:20 | -17.42437 | -41.96701 | 45084 ft | 455 kts | 35° |
| 2026-04-21 04:21 | -17.37388 | -41.92787 | 45090 ft | 455 kts | 34° |
| 2026-04-21 04:21 | -17.32303 | -41.88852 | 45092 ft | 455 kts | 34° |
| 2026-04-21 04:22 | -17.27206 | -41.84908 | 45085 ft | 455 kts | 34° |
| 2026-04-21 04:22 | -17.22108 | -41.80967 | 45088 ft | 456 kts | 34° |
| 2026-04-21 04:23 | -17.17004 | -41.77024 | 45078 ft | 456 kts | 34° |
| 2026-04-21 04:23 | -17.11894 | -41.73080 | 45075 ft | 457 kts | 34° |
| 2026-04-21 04:24 | -17.06774 | -41.69129 | 45079 ft | 457 kts | 34° |
| 2026-04-21 04:24 | -17.01650 | -41.65180 | 45080 ft | 458 kts | 34° |
| 2026-04-21 04:25 | -16.96517 | -41.61225 | 45084 ft | 459 kts | 34° |
| 2026-04-21 04:25 | -16.91377 | -41.57268 | 45073 ft | 459 kts | 34° |
| 2026-04-21 04:26 | -16.86236 | -41.53312 | 45070 ft | 459 kts | 34° |
| 2026-04-21 04:26 | -16.81084 | -41.49352 | 45070 ft | 460 kts | 34° |
| 2026-04-21 04:27 | -16.75928 | -41.45391 | 45069 ft | 460 kts | 34° |
| 2026-04-21 04:27 | -16.70768 | -41.41430 | 45064 ft | 461 kts | 34° |
| 2026-04-21 04:28 | -16.65640 | -41.37468 | 45065 ft | 462 kts | 35° |
| 2026-04-21 04:28 | -16.60496 | -41.33460 | 45059 ft | 462 kts | 34° |
| 2026-04-21 04:29 | -16.55331 | -41.29467 | 45068 ft | 462 kts | 34° |
| 2026-04-21 04:29 | -16.50173 | -41.25463 | 45075 ft | 463 kts | 34° |
| 2026-04-21 04:30 | -16.45000 | -41.21462 | 45076 ft | 463 kts | 34° |
| 2026-04-21 04:30 | -16.39829 | -41.17458 | 45075 ft | 463 kts | 34° |
| 2026-04-21 04:31 | -16.34653 | -41.13457 | 45071 ft | 463 kts | 34° |
| 2026-04-21 04:31 | -16.29478 | -41.09457 | 45073 ft | 463 kts | 34° |
| 2026-04-21 04:32 | -16.24297 | -41.05458 | 45070 ft | 464 kts | 34° |
| 2026-04-21 04:32 | -16.19117 | -41.01460 | 45071 ft | 464 kts | 34° |
| 2026-04-21 04:33 | -16.13941 | -40.97468 | 45066 ft | 463 kts | 34° |
| 2026-04-21 04:33 | -16.08760 | -40.93476 | 45071 ft | 464 kts | 34° |
| 2026-04-21 04:34 | -16.03580 | -40.89486 | 45066 ft | 463 kts | 34° |
| 2026-04-21 04:34 | -15.98403 | -40.85502 | 45069 ft | 463 kts | 34° |
| 2026-04-21 04:35 | -15.93268 | -40.81552 | 45065 ft | 463 kts | 34° |
| 2026-04-21 04:35 | -15.88094 | -40.77575 | 45059 ft | 462 kts | 33° |
| 2026-04-21 04:36 | -15.82923 | -40.73604 | 45062 ft | 462 kts | 33° |
| 2026-04-21 04:36 | -15.77752 | -40.69634 | 45064 ft | 462 kts | 33° |
| 2026-04-21 04:37 | -15.72581 | -40.65667 | 45062 ft | 462 kts | 33° |
| 2026-04-21 04:37 | -15.67411 | -40.61704 | 45058 ft | 462 kts | 33° |
| 2026-04-21 04:38 | -15.62245 | -40.57745 | 45059 ft | 462 kts | 33° |
| 2026-04-21 04:38 | -15.57079 | -40.53791 | 45063 ft | 462 kts | 33° |
| 2026-04-21 04:39 | -15.51916 | -40.49840 | 45058 ft | 461 kts | 33° |
| 2026-04-21 04:39 | -15.46753 | -40.45892 | 45057 ft | 461 kts | 33° |
| 2026-04-21 04:40 | -15.41591 | -40.41947 | 45053 ft | 461 kts | 33° |
| 2026-04-21 04:40 | -15.36435 | -40.38010 | 45051 ft | 460 kts | 33° |
| 2026-04-21 04:41 | -15.31280 | -40.34075 | 45046 ft | 460 kts | 33° |
| 2026-04-21 04:41 | -15.26128 | -40.30145 | 45046 ft | 460 kts | 33° |
| 2026-04-21 04:42 | -15.20977 | -40.26221 | 45041 ft | 460 kts | 33° |
| 2026-04-21 04:42 | -15.15827 | -40.22298 | 45042 ft | 460 kts | 33° |
| 2026-04-21 04:43 | -15.10679 | -40.18380 | 45042 ft | 459 kts | 33° |
| 2026-04-21 04:43 | -15.05532 | -40.14465 | 45044 ft | 459 kts | 33° |
| 2026-04-21 04:44 | -15.01260 | -40.11217 | 45036 ft | 458 kts | 33° |
| 2026-04-21 04:44 | -14.96117 | -40.07310 | 45036 ft | 458 kts | 33° |
| 2026-04-21 04:45 | -14.90148 | -40.02777 | 45036 ft | 458 kts | 33° |
| 2026-04-21 04:45 | -14.85842 | -39.99509 | 45036 ft | 458 kts | 32° |
| 2026-04-21 04:46 | -14.80707 | -39.95615 | 45028 ft | 458 kts | 33° |
| 2026-04-21 04:46 | -14.75575 | -39.91725 | 45039 ft | 458 kts | 32° |
| 2026-04-21 04:47 | -14.70440 | -39.87835 | 45033 ft | 457 kts | 32° |
| 2026-04-21 04:47 | -14.65310 | -39.83951 | 45034 ft | 458 kts | 32° |
| 2026-04-21 04:48 | -14.60177 | -39.80067 | 45026 ft | 457 kts | 32° |
| 2026-04-21 04:48 | -14.55043 | -39.76186 | 45020 ft | 457 kts | 32° |
| 2026-04-21 04:49 | -14.49914 | -39.72309 | 45020 ft | 457 kts | 32° |
| 2026-04-21 04:49 | -14.44783 | -39.68434 | 45022 ft | 457 kts | 32° |
| 2026-04-21 04:50 | -14.39644 | -39.64555 | 45024 ft | 457 kts | 32° |
| 2026-04-21 04:50 | -14.34549 | -39.60711 | 45018 ft | 457 kts | 32° |
| 2026-04-21 04:51 | -14.29416 | -39.56843 | 45016 ft | 457 kts | 32° |
| 2026-04-21 04:51 | -14.24277 | -39.52999 | 45016 ft | 457 kts | 32° |
| 2026-04-21 04:52 | -14.19144 | -39.49148 | 45008 ft | 456 kts | 32° |
| 2026-04-21 04:52 | -14.14010 | -39.45305 | 44999 ft | 456 kts | 32° |
| 2026-04-21 04:53 | -14.08874 | -39.41461 | 45015 ft | 457 kts | 32° |
| 2026-04-21 04:53 | -14.03738 | -39.37619 | 45012 ft | 456 kts | 32° |
| 2026-04-21 04:54 | -13.98608 | -39.33784 | 45007 ft | 455 kts | 32° |
| 2026-04-21 04:54 | -13.93474 | -39.29947 | 45007 ft | 456 kts | 32° |
| 2026-04-21 04:55 | -13.88343 | -39.26116 | 45004 ft | 456 kts | 32° |
| 2026-04-21 04:55 | -13.83206 | -39.22282 | 45000 ft | 456 kts | 32° |
| 2026-04-21 04:56 | -13.78071 | -39.18452 | 44991 ft | 456 kts | 32° |
| 2026-04-21 04:56 | -13.72939 | -39.14625 | 44992 ft | 455 kts | 32° |
| 2026-04-21 04:57 | -13.67805 | -39.10801 | 44990 ft | 456 kts | 32° |
| 2026-04-21 04:57 | -13.62672 | -39.06978 | 44989 ft | 456 kts | 32° |
| 2026-04-21 04:58 | -13.57540 | -39.03159 | 44985 ft | 455 kts | 32° |
| 2026-04-21 04:58 | -13.52402 | -38.99360 | 44982 ft | 455 kts | 32° |
| 2026-04-21 04:59 | -13.47269 | -38.95558 | 44982 ft | 455 kts | 32° |
| 2026-04-21 04:59 | -13.42134 | -38.91761 | 44974 ft | 455 kts | 32° |
| 2026-04-21 05:00 | -13.37034 | -38.87989 | 44974 ft | 454 kts | 32° |
| 2026-04-21 05:00 | -13.29341 | -38.82306 | 44973 ft | 454 kts | 32° |
| 2026-04-21 05:01 | -13.24217 | -38.78522 | 44965 ft | 454 kts | 32° |
| 2026-04-21 05:01 | -13.19090 | -38.74739 | 44967 ft | 453 kts | 32° |
| 2026-04-21 05:02 | -13.13969 | -38.70962 | 44959 ft | 453 kts | 32° |
| 2026-04-21 05:02 | -13.08848 | -38.67187 | 44970 ft | 454 kts | 32° |
| 2026-04-21 05:03 | -13.03724 | -38.63411 | 44973 ft | 454 kts | 32° |
| 2026-04-21 05:03 | -12.98603 | -38.59639 | 44964 ft | 453 kts | 32° |
| 2026-04-21 05:04 | -12.93487 | -38.55874 | 44965 ft | 452 kts | 32° |
| 2026-04-21 05:04 | -12.88376 | -38.52114 | 44967 ft | 452 kts | 32° |
| 2026-04-21 05:05 | -12.83268 | -38.48358 | 44962 ft | 452 kts | 32° |
| 2026-04-21 05:05 | -12.78162 | -38.44606 | 44964 ft | 452 kts | 32° |
| 2026-04-21 05:06 | -12.73056 | -38.40855 | 44964 ft | 451 kts | 32° |
| 2026-04-21 05:06 | -12.67958 | -38.37112 | 44962 ft | 451 kts | 32° |
| 2026-04-21 05:07 | -12.62858 | -38.33370 | 44963 ft | 450 kts | 32° |
| 2026-04-21 05:07 | -12.57772 | -38.29639 | 44966 ft | 450 kts | 32° |
| 2026-04-21 05:08 | -12.52685 | -38.25910 | 44973 ft | 449 kts | 32° |
| 2026-04-21 05:08 | -12.47604 | -38.22187 | 44963 ft | 449 kts | 32° |
| 2026-04-21 05:09 | -12.42563 | -38.18496 | 44967 ft | 449 kts | 32° |
| 2026-04-21 05:09 | -12.37462 | -38.14761 | 44955 ft | 448 kts | 32° |
| 2026-04-21 05:10 | -12.32394 | -38.11054 | 44958 ft | 450 kts | 32° |
| 2026-04-21 05:10 | -12.27005 | -38.07743 | 44959 ft | 454 kts | 18° |
| 2026-04-21 05:11 | -12.20909 | -38.06034 | 44987 ft | 458 kts | 8° |
| 2026-04-21 05:11 | -12.14679 | -38.04514 | 44980 ft | 470 kts | 13° |
| 2026-04-21 05:12 | -12.08320 | -38.02714 | 44973 ft | 478 kts | 10° |
| 2026-04-21 05:12 | -12.01759 | -38.01050 | 44976 ft | 487 kts | 12° |
| 2026-04-21 05:13 | -11.95208 | -37.99255 | 44981 ft | 493 kts | 11° |
| 2026-04-21 05:13 | -11.88499 | -37.97509 | 44971 ft | 495 kts | 11° |
| 2026-04-21 05:14 | -11.81841 | -37.95720 | 44968 ft | 495 kts | 12° |
| 2026-04-21 05:14 | -11.75171 | -37.93964 | 44961 ft | 495 kts | 11° |
| 2026-04-21 05:15 | -11.68550 | -37.92203 | 44967 ft | 495 kts | 12° |
| 2026-04-21 05:15 | -11.61894 | -37.90442 | 44971 ft | 489 kts | 12° |
| 2026-04-21 05:16 | -11.58634 | -37.89575 | 44951 ft | 468 kts | 12° |
| 2026-04-21 05:16 | -11.55570 | -37.88762 | 44945 ft | 460 kts | 11° |
| 2026-04-21 05:16 | -11.49313 | -37.87115 | 44951 ft | 469 kts | 11° |
| 2026-04-21 05:17 | -11.42935 | -37.85422 | 44974 ft | 478 kts | 12° |
| 2026-04-21 05:17 | -11.36448 | -37.83707 | 44978 ft | 483 kts | 12° |
| 2026-04-21 05:18 | -11.29938 | -37.81984 | 44970 ft | 483 kts | 11° |
| 2026-04-21 05:18 | -11.23430 | -37.80264 | 44970 ft | 483 kts | 11° |
| 2026-04-21 05:19 | -11.16919 | -37.78544 | 44967 ft | 483 kts | 11° |
| 2026-04-21 05:19 | -11.10414 | -37.76826 | 44968 ft | 482 kts | 11° |
| 2026-04-21 05:20 | -11.03918 | -37.75111 | 44966 ft | 483 kts | 11° |
| 2026-04-21 05:20 | -10.97419 | -37.73396 | 44964 ft | 482 kts | 11° |
| 2026-04-21 05:21 | -10.90929 | -37.71685 | 44963 ft | 482 kts | 11° |
| 2026-04-21 05:21 | -10.84438 | -37.69974 | 44959 ft | 482 kts | 11° |
| 2026-04-21 05:22 | -10.77949 | -37.68264 | 44958 ft | 481 kts | 11° |
| 2026-04-21 05:22 | -10.71462 | -37.66555 | 44959 ft | 481 kts | 11° |
| 2026-04-21 05:23 | -10.64976 | -37.64848 | 44958 ft | 481 kts | 11° |
| 2026-04-21 05:23 | -10.58495 | -37.63142 | 44954 ft | 481 kts | 11° |
| 2026-04-21 05:24 | -10.52010 | -37.61437 | 44954 ft | 481 kts | 11° |
| 2026-04-21 05:24 | -10.45526 | -37.59732 | 44955 ft | 482 kts | 11° |
| 2026-04-21 05:25 | -10.39034 | -37.58028 | 44952 ft | 482 kts | 11° |
| 2026-04-21 05:25 | -10.32589 | -37.56333 | 44278 ft | 474 kts | 11° |
| 2026-04-21 05:26 | -10.29470 | -37.55514 | 43699 ft | 465 kts | 11° |
| 2026-04-21 05:26 | -10.26366 | -37.54700 | 43115 ft | 457 kts | 11° |
| 2026-04-21 05:26 | -10.23311 | -37.53899 | 42535 ft | 451 kts | 11° |
| 2026-04-21 05:26 | -10.20284 | -37.53106 | 41959 ft | 449 kts | 11° |
| 2026-04-21 05:27 | -10.17255 | -37.52313 | 41371 ft | 451 kts | 11° |
| 2026-04-21 05:27 | -10.14197 | -37.51512 | 40769 ft | 456 kts | 11° |
| 2026-04-21 05:27 | -10.11112 | -37.50703 | 40161 ft | 460 kts | 11° |
| 2026-04-21 05:27 | -10.08005 | -37.49887 | 39549 ft | 462 kts | 11° |
| 2026-04-21 05:28 | -10.04883 | -37.49069 | 38935 ft | 465 kts | 12° |
| 2026-04-21 05:28 | -10.01741 | -37.48246 | 38257 ft | 467 kts | 12° |
| 2026-04-21 05:28 | -9.98602 | -37.47424 | 37652 ft | 466 kts | 12° |
| 2026-04-21 05:28 | -9.95457 | -37.46600 | 37039 ft | 468 kts | 12° |
| 2026-04-21 05:29 | -9.92296 | -37.45772 | 36415 ft | 471 kts | 12° |
| 2026-04-21 05:29 | -9.89119 | -37.44941 | 35791 ft | 472 kts | 12° |
| 2026-04-21 05:29 | -9.85931 | -37.44106 | 35163 ft | 474 kts | 12° |
| 2026-04-21 05:29 | -9.82727 | -37.43267 | 34534 ft | 477 kts | 12° |
| 2026-04-21 05:30 | -9.79509 | -37.42426 | 33930 ft | 478 kts | 12° |
| 2026-04-21 05:30 | -9.76294 | -37.41584 | 33415 ft | 479 kts | 12° |
| 2026-04-21 05:30 | -9.73060 | -37.40739 | 32775 ft | 481 kts | 12° |
| 2026-04-21 05:30 | -9.69818 | -37.39891 | 32135 ft | 482 kts | 12° |
| 2026-04-21 05:31 | -9.67664 | -37.39328 | 31713 ft | 483 kts | 12° |
| 2026-04-21 05:31 | -9.64406 | -37.38476 | 31076 ft | 484 kts | 12° |
| 2026-04-21 05:31 | -9.61135 | -37.37622 | 30432 ft | 487 kts | 13° |
| 2026-04-21 05:31 | -9.57871 | -37.36768 | 29753 ft | 482 kts | 13° |
| 2026-04-21 05:32 | -9.54652 | -37.35926 | 29127 ft | 475 kts | 13° |
| 2026-04-21 05:32 | -9.51469 | -37.35095 | 28512 ft | 470 kts | 13° |
| 2026-04-21 05:32 | -9.48314 | -37.34272 | 27901 ft | 466 kts | 13° |
| 2026-04-21 05:32 | -9.45191 | -37.33457 | 27290 ft | 461 kts | 13° |
| 2026-04-21 05:33 | -9.42101 | -37.32650 | 26698 ft | 457 kts | 13° |
| 2026-04-21 05:33 | -9.39039 | -37.31850 | 26105 ft | 452 kts | 13° |
| 2026-04-21 05:33 | -9.36007 | -37.31060 | 25519 ft | 448 kts | 13° |
| 2026-04-21 05:33 | -9.33001 | -37.30276 | 24935 ft | 444 kts | 14° |
| 2026-04-21 05:34 | -9.30023 | -37.29499 | 24362 ft | 440 kts | 14° |
| 2026-04-21 05:34 | -9.27072 | -37.28729 | 23793 ft | 436 kts | 14° |
| 2026-04-21 05:34 | -9.24147 | -37.27966 | 23176 ft | 432 kts | 14° |
| 2026-04-21 05:34 | -9.21255 | -37.27213 | 22613 ft | 428 kts | 14° |
| 2026-04-21 05:35 | -9.18388 | -37.26465 | 22054 ft | 424 kts | 14° |
| 2026-04-21 05:35 | -9.15546 | -37.25725 | 21499 ft | 420 kts | 14° |
| 2026-04-21 05:35 | -9.12728 | -37.24990 | 20953 ft | 416 kts | 14° |
| 2026-04-21 05:35 | -9.09934 | -37.24262 | 20413 ft | 413 kts | 14° |
| 2026-04-21 05:36 | -9.07161 | -37.23540 | 19873 ft | 410 kts | 15° |
| 2026-04-21 05:36 | -9.04415 | -37.22825 | 19337 ft | 406 kts | 14° |
| 2026-04-21 05:36 | -9.01687 | -37.22102 | 18815 ft | 404 kts | 15° |
| 2026-04-21 05:36 | -8.98980 | -37.21395 | 18304 ft | 401 kts | 14° |
| 2026-04-21 05:37 | -8.96286 | -37.20712 | 17722 ft | 398 kts | 15° |
| 2026-04-21 05:37 | -8.93621 | -37.20004 | 17140 ft | 393 kts | 17° |
| 2026-04-21 05:37 | -8.91249 | -37.18677 | 16416 ft | 390 kts | 41° |
| 2026-04-21 05:37 | -8.89647 | -37.16570 | 16211 ft | 384 kts | 60° |
| 2026-04-21 05:38 | -8.88714 | -37.14054 | 16056 ft | 383 kts | 78° |
| 2026-04-21 05:38 | -8.88456 | -37.11381 | 15965 ft | 382 kts | 88° |
| 2026-04-21 05:38 | -8.88352 | -37.08695 | 15897 ft | 382 kts | 88° |
| 2026-04-21 05:38 | -8.88161 | -37.06008 | 15617 ft | 383 kts | 85° |
| 2026-04-21 05:39 | -8.87896 | -37.03347 | 15118 ft | 379 kts | 85° |
| 2026-04-21 05:39 | -8.87669 | -37.00707 | 14615 ft | 375 kts | 86° |
| 2026-04-21 05:39 | -8.87489 | -36.98087 | 14119 ft | 372 kts | 87° |
| 2026-04-21 05:39 | -8.87298 | -36.95492 | 13619 ft | 369 kts | 86° |
| 2026-04-21 05:40 | -8.87083 | -36.92917 | 13114 ft | 365 kts | 86° |
| 2026-04-21 05:40 | -8.86875 | -36.90367 | 12639 ft | 362 kts | 86° |
| 2026-04-21 05:40 | -8.86681 | -36.87837 | 12163 ft | 359 kts | 86° |
| 2026-04-21 05:40 | -8.86486 | -36.85329 | 11689 ft | 356 kts | 86° |
| 2026-04-21 05:41 | -8.86288 | -36.82851 | 11228 ft | 339 kts | 86° |
| 2026-04-21 05:41 | -8.86109 | -36.80652 | 10808 ft | 298 kts | 86° |
| 2026-04-21 05:41 | -8.85948 | -36.78592 | 10423 ft | 292 kts | 86° |
| 2026-04-21 05:41 | -8.85785 | -36.76489 | 10016 ft | 299 kts | 86° |
| 2026-04-21 05:42 | -8.85621 | -36.74431 | 9607 ft | 288 kts | 86° |
| 2026-04-21 05:42 | -8.85463 | -36.72482 | 9239 ft | 260 kts | 86° |
| 2026-04-21 05:42 | -8.85326 | -36.70770 | 8893 ft | 239 kts | 87° |
| 2026-04-21 05:42 | -8.85199 | -36.69139 | 8585 ft | 232 kts | 87° |
| 2026-04-21 05:43 | -8.85071 | -36.67514 | 8292 ft | 230 kts | 86° |
| 2026-04-21 05:43 | -8.84943 | -36.65913 | 8000 ft | 227 kts | 86° |
| 2026-04-21 05:43 | -8.84817 | -36.64335 | 7713 ft | 224 kts | 86° |
| 2026-04-21 05:43 | -8.84693 | -36.62777 | 7421 ft | 221 kts | 86° |
| 2026-04-21 05:44 | -8.84571 | -36.61236 | 7136 ft | 219 kts | 86° |
| 2026-04-21 05:44 | -8.84449 | -36.59707 | 6850 ft | 217 kts | 86° |
| 2026-04-21 05:44 | -8.84327 | -36.58185 | 6563 ft | 217 kts | 86° |
| 2026-04-21 05:44 | -8.84207 | -36.56682 | 6285 ft | 207 kts | 86° |
| 2026-04-21 05:45 | -8.84099 | -36.55343 | 5978 ft | 178 kts | 86° |
| 2026-04-21 05:45 | -8.84003 | -36.54136 | 5763 ft | 163 kts | 86° |
| 2026-04-21 05:45 | -8.83917 | -36.53070 | 5557 ft | 144 kts | 87° |
| 2026-04-21 05:45 | -8.83839 | -36.52085 | 5379 ft | 139 kts | 86° |
| 2026-04-21 05:46 | -8.83762 | -36.51114 | 5204 ft | 138 kts | 87° |
| 2026-04-21 05:46 | -8.83717 | -36.50145 | 5011 ft | 138 kts | 91° |
| 2026-04-21 05:46 | -8.83726 | -36.49169 | 4774 ft | 139 kts | 91° |
| 2026-04-21 05:46 | -8.83631 | -36.48186 | 4436 ft | 140 kts | 84° |
| 2026-04-21 05:47 | -8.83522 | -36.47253 | 4433 ft | 137 kts | 70° |
| 2026-04-21 05:47 | -8.82967 | -36.46464 | 4403 ft | 139 kts | 50° |
| 2026-04-21 05:47 | -8.82275 | -36.45783 | 4504 ft | 141 kts | 46° |
| 2026-04-21 05:47 | -8.81658 | -36.45017 | 4406 ft | 140 kts | 56° |
| 2026-04-21 05:48 | -8.81052 | -36.44249 | 4338 ft | 138 kts | 47° |
| 2026-04-21 05:48 | -8.80258 | -36.43744 | 4609 ft | 145 kts | 10° |
| 2026-04-21 05:48 | -8.79368 | -36.43799 | 4630 ft | 152 kts | 339° |
| 2026-04-21 05:48 | -8.78524 | -36.44319 | 4477 ft | 156 kts | 313° |
| 2026-04-21 05:49 | -8.78013 | -36.45297 | 4084 ft | 161 kts | 281° |
| 2026-04-21 05:49 | -8.77930 | -36.46353 | 4003 ft | 139 kts | 252° |
| 2026-04-21 05:49 | -8.78425 | -36.47229 | 3769 ft | 148 kts | 217° |
| 2026-04-21 05:49 | -8.79328 | -36.47612 | 3459 ft | 143 kts | 185° |
| 2026-04-21 05:50 | -8.80267 | -36.48003 | 3096 ft | 142 kts | 209° |
| 2026-04-21 05:50 | -8.81153 | -36.48352 | 3061 ft | 142 kts | 178° |
| 2026-04-21 05:50 | -8.82140 | -36.48227 | 2777 ft | 138 kts | 157° |
| 2026-04-21 05:50 | -8.82920 | -36.47658 | 2500 ft | 142 kts | 129° |
| 2026-04-21 05:51 | -8.83561 | -36.46971 | 2564 ft | 139 kts | 122° |
| 2026-04-21 05:51 | -8.83886 | -36.46087 | 3357 ft | 123 kts | 95° |
| 2026-04-21 05:51 | -8.84082 | -36.45222 | 3864 ft | 137 kts | 92° |
| 2026-04-21 05:51 | -8.83660 | -36.44261 | 4199 ft | 160 kts | 50° |
| 2026-04-21 05:52 | -8.82974 | -36.43502 | 4699 ft | 146 kts | 51° |
| 2026-04-21 05:52 | -8.82295 | -36.42719 | 4571 ft | 149 kts | 51° |
| 2026-04-21 05:52 | -8.81609 | -36.41937 | 4307 ft | 148 kts | 50° |
| 2026-04-21 05:52 | -8.80671 | -36.41598 | 3915 ft | 152 kts | 356° |
| 2026-04-21 05:53 | -8.79770 | -36.42051 | 3624 ft | 149 kts | 309° |
| 2026-04-21 05:53 | -8.79487 | -36.43166 | 3380 ft | 179 kts | 275° |
| 2026-04-21 05:53 | -8.79357 | -36.44338 | 4014 ft | 152 kts | 277° |
| 2026-04-21 05:53 | -8.79225 | -36.45353 | 4531 ft | 148 kts | 277° |
| 2026-04-21 05:54 | -8.79088 | -36.46430 | 4535 ft | 156 kts | 277° |
| 2026-04-21 05:54 | -8.78978 | -36.47508 | 4462 ft | 155 kts | 270° |
| 2026-04-21 05:54 | -8.78889 | -36.48605 | 4230 ft | 159 kts | 273° |
| 2026-04-21 05:54 | -8.78972 | -36.49637 | 4338 ft | 150 kts | 238° |
| 2026-04-21 05:55 | -8.79714 | -36.50389 | 4069 ft | 154 kts | 201° |
| 2026-04-21 05:55 | -8.80655 | -36.50434 | 3952 ft | 139 kts | 144° |
| 2026-04-21 05:55 | -8.81327 | -36.49651 | 3224 ft | 156 kts | 118° |
| 2026-04-21 05:55 | -8.81963 | -36.48806 | 2854 ft | 145 kts | 128° |
| 2026-04-21 05:56 | -8.82592 | -36.48029 | 2609 ft | 142 kts | 131° |
| 2026-04-21 05:56 | -8.83251 | -36.47324 | 2470 ft | 128 kts | 134° |
| 2026-04-21 05:56 | -8.83696 | -36.46877 | 2462 ft | 36 kts | 136° |
| 2026-04-21 05:56 | -8.83768 | -36.46881 | 2464 ft | 7 kts | 236° |
| 2026-04-21 05:57 | -8.83800 | -36.46915 | 2460 ft | 6 kts | 224° |
| 2026-04-21 05:57 | -8.83805 | -36.46921 | 2460 ft | 3 kts | 225° |
| 2026-04-21 05:57 | -8.83805 | -36.46926 | 2460 ft | 2 kts | 286° |
| 2026-04-21 05:57 | -8.83792 | -36.46954 | 2464 ft | 4 kts | 252° |
| 2026-04-21 05:58 | -8.83800 | -36.46966 | 2462 ft | 0 kts | 223° |
| 2026-04-21 05:58 | -8.83802 | -36.46967 | 2462 ft | 0 kts | 223° |
| 2026-04-21 06:05 | -8.83797 | -36.46962 | 2462 ft | 0 kts | 186° |
| 2026-04-21 06:05 | -8.83795 | -36.46962 | 2465 ft | 0 kts | 165° |
| 2026-04-21 06:05 | -8.83794 | -36.46962 | 2468 ft | 0 kts | 150° |
| 2026-04-21 06:06 | -8.83797 | -36.46959 | 2464 ft | 1 kts | 141° |
| 2026-04-21 06:06 | -8.83802 | -36.46955 | 2464 ft | 1 kts | 142° |
| 2026-04-21 06:06 | -8.83808 | -36.46951 | 2461 ft | 1 kts | 159° |
| 2026-04-21 06:06 | -8.83814 | -36.46956 | 2465 ft | 0 kts | 242° |
| 2026-04-21 06:07 | -8.83812 | -36.46962 | 2467 ft | 1 kts | 304° |
| 2026-04-21 06:07 | -8.83811 | -36.46962 | 2462 ft | 0 kts | 314° |
| 2026-04-21 06:07 | -8.83810 | -36.46962 | 2462 ft | 0 kts | 317° |